Time;durP1;ratioP1;P1;durP2;ratioP2;P2;SDS_P1;SDS_P2;PMS_P1;PMS_P2;Temp;Humidity;BMP_temperature;BMP_pressure;BME280_temperature;BME280_humidity;BME280_pressure;Samples;Min_cycle;Max_cycle;Signal;HPM_P1;HPM_P2
2020/12/24 00:02:37;;;;;;;26.53;18.73;;;;;;;5.80;81.08;98158.02;2175859;82;21117;-79
2020/12/24 00:05:38;;;;;;;24.43;17.57;;;;;;;5.80;81.02;98153.26;2175713;82;21130;-79
2020/12/24 00:08:39;;;;;;;28.27;17.40;;;;;;;5.76;81.04;98151.03;2175026;82;21114;-79
2020/12/24 00:11:40;;;;;;;25.73;17.43;;;;;;;5.68;81.22;98132.75;2175431;82;21126;-78
2020/12/24 00:14:41;;;;;;;31.13;18.13;;;;;;;5.66;81.15;98131.84;2174574;82;21360;-79
2020/12/24 00:17:42;;;;;;;27.63;18.23;;;;;;;5.67;81.22;98128.84;2174977;82;21118;-81
2020/12/24 00:20:46;;;;;;;26.10;16.43;;;;;;;5.65;81.18;98118.45;2175856;82;21131;-81
2020/12/24 00:23:47;;;;;;;24.12;15.83;;;;;;;5.64;81.22;98118.00;2176115;80;21082;-79
2020/12/24 00:26:48;;;;;;;25.97;15.67;;;;;;;5.61;81.33;98105.42;2179261;82;21074;-79
2020/12/24 00:29:50;;;;;;;25.60;16.23;;;;;;;5.60;81.30;98103.67;2179096;82;21130;-80
2020/12/24 00:32:51;;;;;;;22.60;15.50;;;;;;;5.57;81.36;98098.02;2179106;81;21114;-79
2020/12/24 00:35:52;;;;;;;21.60;14.80;;;;;;;5.53;81.37;98091.03;2179028;82;21170;-79
2020/12/24 00:38:56;;;;;;;23.17;14.47;;;;;;;5.52;81.48;98092.30;2179106;82;21118;-79
2020/12/24 00:41:57;;;;;;;26.17;16.93;;;;;;;5.50;81.69;98084.50;2179047;82;21241;-80
2020/12/24 00:45:01;;;;;;;21.87;15.43;;;;;;;5.51;81.64;98084.95;2178963;82;21551;-80
2020/12/24 00:48:02;;;;;;;24.03;15.37;;;;;;;5.53;81.66;98087.14;2178980;82;21141;-80
2020/12/24 00:51:03;;;;;;;47.50;33.83;;;;;;;5.55;81.68;98086.75;2179630;82;21086;-81
2020/12/24 00:54:04;;;;;;;65.30;44.30;;;;;;;7.68;90.10;98069.34;2179306;82;21082;-80
2020/12/24 00:57:06;;;;;;;57.67;39.23;;;;;;;10.50;87.53;98067.11;2179488;82;21157;-80
2020/12/24 01:00:07;;;;;;;57.90;43.83;;;;;;;12.29;81.73;98050.37;2179283;82;21130;-80
2020/12/24 01:03:08;;;;;;;34.70;24.57;;;;;;;13.57;76.50;98041.70;2179453;82;21106;-81
2020/12/24 01:06:09;;;;;;;31.03;22.77;;;;;;;14.37;73.02;98035.75;2179481;82;21137;-80
2020/12/24 01:09:10;;;;;;;19.73;14.77;;;;;;;14.62;67.11;98030.99;2179338;82;21114;-80
2020/12/24 01:12:11;;;;;;;21.37;13.77;;;;;;;12.40;64.73;98032.84;2178628;82;21090;-79
2020/12/24 01:15:12;;;;;;;18.93;13.97;;;;;;;10.56;65.65;98033.62;2178168;82;21118;-80
2020/12/24 01:18:13;;;;;;;20.03;14.10;;;;;;;9.29;68.11;98038.98;2178872;82;21169;-80
2020/12/24 01:21:14;;;;;;;16.83;12.97;;;;;;;8.44;70.01;98043.66;2178886;82;21090;-82
2020/12/24 01:24:15;;;;;;;18.43;13.10;;;;;;;7.87;71.62;98036.66;2178727;81;21121;-79
2020/12/24 01:27:16;;;;;;;19.13;13.40;;;;;;;7.47;72.92;98029.28;2175322;82;21447;-79
2020/12/24 01:30:17;;;;;;;17.60;13.13;;;;;;;7.09;74.23;98025.80;2174948;82;21090;-79
2020/12/24 01:33:19;;;;;;;16.07;12.23;;;;;;;6.87;74.91;98039.32;2175175;82;21118;-80
2020/12/24 01:36:20;;;;;;;18.73;13.83;;;;;;;6.76;76.10;98017.13;2174970;82;21173;-79
2020/12/24 01:39:21;;;;;;;21.20;14.63;;;;;;;6.60;76.52;98022.53;2175096;82;21138;-79
2020/12/24 01:42:22;;;;;;;23.63;15.13;;;;;;;6.52;77.10;98009.88;2175442;82;21386;-82
2020/12/24 01:45:25;;;;;;;20.23;13.83;;;;;;;6.49;77.46;97996.00;2175833;82;21388;-79
2020/12/24 01:48:26;;;;;;;21.47;14.90;;;;;;;6.44;77.60;98002.41;2175909;82;21118;-79
2020/12/24 01:51:28;;;;;;;19.73;14.07;;;;;;;6.46;78.09;97989.05;2175738;82;21388;-79
2020/12/24 01:54:29;;;;;;;20.53;14.30;;;;;;;6.49;78.85;97987.80;2175564;82;21130;-78
2020/12/24 01:57:30;;;;;;;21.63;14.37;;;;;;;6.51;78.25;97990.41;2175637;82;21170;-78
2020/12/24 02:00:31;;;;;;;21.47;15.50;;;;;;;6.55;79.11;97975.34;2175583;82;21136;-79
2020/12/24 02:03:33;;;;;;;23.77;16.53;;;;;;;6.58;79.90;97980.57;2175696;82;21114;-80
2020/12/24 02:06:34;;;;;;;26.13;16.17;;;;;;;6.58;79.90;97980.57;2175224;82;21130;-80
2020/12/24 02:09:37;;;;;;;28.93;16.40;;;;;;;6.62;79.82;97977.17;2175437;82;21114;-79
2020/12/24 02:12:38;;;;;;;23.20;16.63;;;;;;;6.68;79.53;97972.06;2176376;82;21380;-80
2020/12/24 02:15:39;;;;;;;24.23;18.23;;;;;;;6.70;79.82;97970.36;2175366;82;21138;-79
2020/12/24 02:18:40;;;;;;;24.23;16.80;;;;;;;6.70;79.82;97970.36;2175602;82;21130;-80
2020/12/24 02:21:42;;;;;;;21.03;16.37;;;;;;;6.75;80.21;97966.11;2175849;82;21106;-79
2020/12/24 02:24:43;;;;;;;26.10;18.03;;;;;;;6.75;80.21;97966.11;2178077;81;21174;-80
2020/12/24 02:27:44;;;;;;;23.50;16.23;;;;;;;6.79;80.19;97965.72;2196170;81;21127;-78
2020/12/24 02:30:47;;;;;;;24.13;17.23;;;;;;;6.85;80.42;97965.37;2196263;81;21238;-81
2020/12/24 02:33:48;;;;;;;26.93;17.57;;;;;;;6.93;80.20;97963.73;2196095;81;21234;-79
2020/12/24 02:36:49;;;;;;;26.30;17.83;;;;;;;6.93;80.20;97963.73;2195906;81;21190;-80
2020/12/24 02:39:50;;;;;;;28.10;18.07;;;;;;;6.97;80.33;97960.78;2195964;81;21123;-80
2020/12/24 02:42:51;;;;;;;25.40;17.17;;;;;;;7.02;80.27;97961.71;2196081;81;21131;-79
2020/12/24 02:45:56;;;;;;;25.00;18.67;;;;;;;7.06;80.26;97961.32;2196144;81;21263;-80
2020/12/24 02:48:57;;;;;;;25.33;18.00;;;;;;;7.09;80.33;97953.14;2196275;81;21118;-79
2020/12/24 02:51:58;;;;;;;26.23;18.50;;;;;;;7.14;80.40;97948.00;2196175;81;21103;-79
2020/12/24 02:54:59;;;;;;;28.40;19.17;;;;;;;7.19;80.49;97936.82;2196067;81;21079;-79
2020/12/24 02:58:01;;;;;;;26.53;18.73;;;;;;;7.23;80.42;97944.20;2196198;81;21272;-79
2020/12/24 03:01:03;;;;;;;26.70;18.97;;;;;;;7.27;80.41;97942.09;2196035;81;21446;-80
2020/12/24 03:04:06;;;;;;;30.73;20.23;;;;;;;7.30;80.49;97939.09;2196096;81;21087;-80
2020/12/24 03:07:07;;;;;;;30.60;20.23;;;;;;;7.36;80.71;97935.70;2196132;81;21087;-79
2020/12/24 03:10:08;;;;;;;30.50;19.53;;;;;;;7.45;80.70;97933.19;2196131;81;21087;-80
2020/12/24 03:13:09;;;;;;;26.27;19.23;;;;;;;7.52;80.67;97937.58;2196115;81;21272;-80
2020/12/24 03:16:10;;;;;;;28.57;19.50;;;;;;;7.59;80.64;97939.38;2195794;81;21277;-81
2020/12/24 03:19:11;;;;;;;25.47;17.87;;;;;;;7.65;80.66;97940.73;2195366;81;21083;-79
2020/12/24 03:22:12;;;;;;;31.50;20.93;;;;;;;7.72;80.50;97942.09;2195468;81;21118;-81
2020/12/24 03:25:13;;;;;;;28.30;20.37;;;;;;;7.80;81.10;97936.52;2191175;81;21154;-79
2020/12/24 03:28:14;;;;;;;27.77;19.23;;;;;;;7.92;81.30;97938.83;2175211;82;21114;-80
2020/12/24 03:31:16;;;;;;;30.47;20.93;;;;;;;8.09;82.10;97936.35;2175469;82;21121;-80
2020/12/24 03:34:17;;;;;;;24.80;17.60;;;;;;;8.26;82.35;97928.66;2176058;82;21228;-79
2020/12/24 03:37:18;;;;;;;32.40;19.83;;;;;;;8.38;82.47;97927.47;2175975;82;21463;-81
2020/12/24 03:40:20;;;;;;;23.67;17.90;;;;;;;8.46;82.41;97921.88;2176021;82;21134;-80
2020/12/24 03:43:21;;;;;;;23.77;17.17;;;;;;;8.55;82.47;97921.93;2176015;82;21118;-80
2020/12/24 03:46:24;;;;;;;27.53;17.20;;;;;;;8.62;82.51;97921.53;2176172;82;21410;-80
2020/12/24 03:49:26;;;;;;;17.33;14.07;;;;;;;8.68;82.52;97913.78;2176322;82;21122;-80
2020/12/24 03:52:27;;;;;;;21.50;14.80;;;;;;;8.72;82.47;97908.16;2176177;82;21122;-80
2020/12/24 03:55:28;;;;;;;23.20;14.73;;;;;;;8.75;82.82;97905.58;2176277;82;21423;-81
2020/12/24 03:58:29;;;;;;;14.87;11.63;;;;;;;8.77;82.67;97914.25;2176318;82;21114;-81
2020/12/24 04:01:30;;;;;;;16.10;13.47;;;;;;;8.81;83.05;97911.67;2175766;82;21241;-80
2020/12/24 04:04:32;;;;;;;19.33;14.13;;;;;;;8.84;83.02;97905.17;2175901;82;21122;-81
2020/12/24 04:07:33;;;;;;;26.63;19.50;;;;;;;8.88;82.76;97909.53;2175624;82;21415;-81
2020/12/24 04:10:34;;;;;;;16.53;11.90;;;;;;;8.95;83.00;97900.01;2175374;82;21122;-81
2020/12/24 04:13:35;;;;;;;22.77;12.70;;;;;;;9.01;82.95;97906.53;2175434;82;21137;-81
2020/12/24 04:16:36;;;;;;;16.53;13.07;;;;;;;9.05;82.85;97908.72;2175943;82;21174;-82
2020/12/24 04:19:37;;;;;;;15.97;12.37;;;;;;;9.08;82.69;97912.63;2176348;82;21375;-79
2020/12/24 04:22:41;;;;;;;14.73;10.57;;;;;;;9.14;82.59;97906.13;2176190;82;21145;-80
2020/12/24 04:25:42;;;;;;;14.20;9.93;;;;;;;9.18;82.54;97907.45;2176835;81;21149;-79
2020/12/24 04:28:43;;;;;;;12.87;9.80;;;;;;;9.24;82.70;97902.25;2179312;82;21114;-79
2020/12/24 04:31:44;;;;;;;12.03;9.33;;;;;;;9.30;82.43;97905.73;2179334;82;21086;-79
2020/12/24 04:34:48;;;;;;;12.68;9.20;;;;;;;9.34;82.45;97894.45;2179573;82;21146;-80
2020/12/24 04:37:49;;;;;;;11.60;9.35;;;;;;;9.38;82.39;97888.38;2179412;82;21166;-80
2020/12/24 04:40:50;;;;;;;10.63;8.43;;;;;;;9.41;82.34;97902.28;2179176;82;21426;-79
2020/12/24 04:43:51;;;;;;;10.87;8.57;;;;;;;9.43;82.23;97897.94;2179275;82;21371;-80
2020/12/24 04:46:52;;;;;;;12.03;8.27;;;;;;;9.45;82.21;97902.72;2179047;81;21094;-79
2020/12/24 04:49:53;;;;;;;13.97;9.60;;;;;;;9.46;82.06;97899.25;2179194;82;21396;-80
2020/12/24 04:52:54;;;;;;;11.60;9.27;;;;;;;9.44;81.90;97887.09;2179506;82;21142;-81
2020/12/24 04:55:56;;;;;;;11.60;9.27;;;;;;;9.42;82.01;97896.20;2179481;82;21130;-81
2020/12/24 04:58:57;;;;;;;12.20;9.40;;;;;;;9.43;82.02;97894.47;2179178;82;21118;-82
2020/12/24 05:01:58;;;;;;;13.07;9.27;;;;;;;9.42;82.00;97896.64;2177998;82;21427;-83
2020/12/24 05:04:59;;;;;;;12.17;9.53;;;;;;;9.43;81.99;97901.84;2178740;82;21116;-84
2020/12/24 05:08:00;;;;;;;12.15;9.33;;;;;;;9.45;81.91;97905.33;2178993;82;21126;-81
2020/12/24 05:11:01;;;;;;;32.87;22.63;;;;;;;9.47;81.80;97897.08;2178700;82;21111;-80
2020/12/24 05:14:02;;;;;;;13.13;9.90;;;;;;;9.47;81.89;97901.42;2178789;82;21099;-83
2020/12/24 05:17:03;;;;;;;11.53;9.40;;;;;;;9.42;81.61;97894.91;2179176;82;21158;-82
2020/12/24 05:20:04;;;;;;;12.60;9.97;;;;;;;9.38;81.66;97907.48;2179355;82;21162;-82
2020/12/24 05:23:05;;;;;;;13.77;9.47;;;;;;;9.37;81.65;97905.75;2179205;82;21118;-82
2020/12/24 05:26:07;;;;;;;13.27;9.77;;;;;;;9.36;81.71;97892.29;2177864;81;21158;-81
2020/12/24 05:29:08;;;;;;;11.40;9.00;;;;;;;9.36;81.69;97893.59;2175988;82;21078;-81
2020/12/24 05:32:10;;;;;;;12.20;8.83;;;;;;;9.36;81.80;97894.02;2176130;82;21122;-81
2020/12/24 05:35:11;;;;;;;12.00;9.23;;;;;;;9.35;81.77;97907.48;2176015;82;21118;-80
2020/12/24 05:38:14;;;;;;;11.13;9.77;;;;;;;9.34;81.76;97903.14;2175835;80;21268;-82
2020/12/24 05:41:18;;;;;;;11.73;9.53;;;;;;;9.35;81.64;97910.09;2175884;82;21114;-82
2020/12/24 05:44:19;;;;;;;16.83;10.33;;;;;;;9.37;81.68;97908.35;2176362;82;21114;-81
2020/12/24 05:47:20;;;;;;;12.90;9.60;;;;;;;9.38;81.72;97891.86;2175678;82;21118;-83
2020/12/24 05:50:21;;;;;;;16.90;10.93;;;;;;;9.38;81.56;97894.46;2175363;82;21078;-83
2020/12/24 05:53:23;;;;;;;16.00;10.07;;;;;;;9.41;81.66;97892.30;2175508;82;21094;-81
2020/12/24 05:56:25;;;;;;;15.93;12.25;;;;;;;9.41;81.67;97885.78;2175261;82;21186;-82
2020/12/24 05:59:26;;;;;;;21.25;14.78;;;;;;;9.41;81.59;97882.75;2175330;82;21126;-81
2020/12/24 06:02:27;;;;;;;14.73;11.13;;;;;;;9.40;81.73;97881.01;2175705;82;21150;-81
2020/12/24 06:05:28;;;;;;;15.73;11.80;;;;;;;9.38;81.50;97884.05;2175018;82;21445;-80
2020/12/24 06:08:29;;;;;;;16.63;11.73;;;;;;;9.33;81.51;97874.05;2175069;82;21534;-81
2020/12/24 06:11:30;;;;;;;15.67;11.57;;;;;;;9.29;81.53;97868.84;2175053;82;21114;-81
2020/12/24 06:14:31;;;;;;;14.17;10.80;;;;;;;9.23;81.54;97873.17;2175114;82;21087;-81
2020/12/24 06:17:32;;;;;;;15.80;10.47;;;;;;;9.21;81.65;97877.94;2174578;82;21435;-80
2020/12/24 06:20:34;;;;;;;15.83;10.90;;;;;;;9.18;81.53;97873.59;2174658;82;21153;-80
2020/12/24 06:23:35;;;;;;;14.90;10.67;;;;;;;9.15;81.65;97871.42;2174777;82;21114;-79
2020/12/24 06:26:36;;;;;;;14.17;11.27;;;;;;;9.13;81.55;97870.12;2175609;81;21150;-79
2020/12/24 06:29:37;;;;;;;16.97;11.67;;;;;;;9.10;81.55;97861.44;2178725;82;21395;-80
2020/12/24 06:32:38;;;;;;;13.97;9.93;;;;;;;9.07;81.52;97858.39;2179020;82;21110;-80
2020/12/24 06:35:39;;;;;;;12.63;10.53;;;;;;;9.06;81.61;97860.99;2179437;82;21121;-79
2020/12/24 06:38:41;;;;;;;14.23;10.03;;;;;;;9.03;81.69;97860.98;2179048;81;21122;-80
2020/12/24 06:41:42;;;;;;;12.63;10.80;;;;;;;9.01;81.75;97865.31;2178925;82;21391;-80
2020/12/24 06:44:46;;;;;;;12.00;10.30;;;;;;;8.97;81.88;97868.34;2178887;82;21288;-79
2020/12/24 06:47:47;;;;;;;13.55;11.35;;;;;;;8.97;81.96;97880.49;2179032;82;21114;-78
2020/12/24 06:50:48;;;;;;;17.03;11.97;;;;;;;8.94;81.79;97877.45;2178821;82;21114;-78
2020/12/24 06:53:49;;;;;;;18.63;10.97;;;;;;;8.93;81.95;97880.92;2178670;82;21118;-79
2020/12/24 06:56:51;;;;;;;14.47;11.63;;;;;;;8.91;81.84;97891.75;2178694;82;21126;-80
2020/12/24 06:59:52;;;;;;;14.73;11.53;;;;;;;8.88;81.90;97903.45;2178777;82;21114;-80
2020/12/24 07:02:53;;;;;;;15.33;11.87;;;;;;;8.89;82.04;97907.36;2179273;82;21372;-80
2020/12/24 07:05:57;;;;;;;17.67;12.37;;;;;;;8.91;82.11;97903.03;2179093;82;21379;-80
2020/12/24 07:08:58;;;;;;;15.60;12.87;;;;;;;8.94;82.23;97906.08;2179343;81;21191;-79
2020/12/24 07:12:02;;;;;;;14.83;12.00;;;;;;;8.98;81.88;97907.83;2178839;82;21847;-79
2020/12/24 07:15:03;;;;;;;17.00;12.18;;;;;;;9.00;81.93;97906.53;2178905;81;21192;-80
2020/12/24 07:18:04;;;;;;;22.40;16.87;;;;;;;9.03;81.80;97907.84;2178830;82;21161;-79
2020/12/24 07:21:06;;;;;;;22.10;16.30;;;;;;;9.04;81.62;97919.56;2179066;82;21126;-79
2020/12/24 07:24:09;;;;;;;18.33;14.57;;;;;;;9.07;81.58;97922.60;2178916;82;21095;-79
2020/12/24 07:27:10;;;;;;;19.50;15.35;;;;;;;9.09;81.48;97923.05;2177627;81;21423;-78
2020/12/24 07:30:14;;;;;;;25.80;17.60;;;;;;;9.13;81.41;97930.00;2175707;82;21114;-78
2020/12/24 07:33:15;;;;;;;27.40;17.10;;;;;;;9.18;81.36;97932.19;2175766;82;21123;-79
2020/12/24 07:36:16;;;;;;;24.07;16.83;;;;;;;9.20;81.14;97923.94;2175714;82;21162;-79
2020/12/24 07:39:17;;;;;;;21.50;15.17;;;;;;;9.23;81.07;97919.17;2175196;82;21103;-78
2020/12/24 07:42:18;;;;;;;24.63;16.60;;;;;;;9.25;80.92;97923.95;2175207;82;21411;-78
2020/12/24 07:45:19;;;;;;;36.23;23.63;;;;;;;9.24;80.88;97923.52;2175058;82;21225;-77
2020/12/24 07:48:21;;;;;;;31.17;20.07;;;;;;;9.26;80.84;97922.66;2175268;82;21221;-78
2020/12/24 07:51:23;;;;;;;29.17;18.10;;;;;;;9.30;80.79;97917.02;2175506;82;21118;-78
2020/12/24 07:54:25;;;;;;;29.40;19.20;;;;;;;9.28;80.65;97904.43;2175087;82;21099;-79
2020/12/24 07:57:26;;;;;;;30.50;19.80;;;;;;;9.25;80.65;97899.22;2175441;82;21393;-80
2020/12/24 08:00:27;;;;;;;42.03;23.03;;;;;;;9.23;80.64;97897.05;2175419;82;21114;-79
2020/12/24 08:03:28;;;;;;;39.33;22.63;;;;;;;9.23;80.62;97892.70;2175054;82;21118;-79
2020/12/24 08:06:30;;;;;;;27.50;18.70;;;;;;;9.23;80.63;97891.84;2175233;82;21146;-78
2020/12/24 08:09:31;;;;;;;29.70;18.10;;;;;;;9.22;80.52;97895.30;2175465;82;21184;-78
2020/12/24 08:12:34;;;;;;;24.93;15.80;;;;;;;9.22;80.48;97894.88;2175895;82;21114;-79
2020/12/24 08:15:35;;;;;;;22.97;16.50;;;;;;;9.23;80.47;97896.61;2175466;82;21083;-80
2020/12/24 08:18:36;;;;;;;25.33;15.90;;;;;;;9.23;80.40;97892.70;2175617;82;21177;-79
2020/12/24 08:21:37;;;;;;;23.17;16.73;;;;;;;9.24;80.40;97884.45;2175505;82;21396;-79
2020/12/24 08:24:38;;;;;;;23.73;16.53;;;;;;;9.25;80.39;97884.46;2175594;82;21372;-79
2020/12/24 08:27:39;;;;;;;21.93;16.03;;;;;;;9.27;80.33;97889.67;2177479;81;21416;-78
2020/12/24 08:30:40;;;;;;;24.93;17.70;;;;;;;9.28;80.27;97892.71;2179067;82;21122;-78
2020/12/24 08:33:42;;;;;;;23.23;15.70;;;;;;;9.28;80.26;97894.45;2178202;82;21125;-78
2020/12/24 08:36:43;;;;;;;21.73;15.50;;;;;;;9.28;80.23;97887.94;2178390;82;21438;-78
2020/12/24 08:39:43;;;;;;;21.27;16.13;;;;;;;9.30;80.21;97898.80;2178849;82;21237;-79
2020/12/24 08:42:45;;;;;;;29.97;21.37;;;;;;;9.30;80.18;97888.38;2178735;82;21094;-77
2020/12/24 08:45:46;;;;;;;22.33;15.13;;;;;;;9.31;80.13;97893.15;2178589;82;21124;-78
2020/12/24 08:48:47;;;;;;;21.37;16.53;;;;;;;9.32;80.07;97897.06;2178864;82;21142;-79
2020/12/24 08:51:48;;;;;;;22.60;16.20;;;;;;;9.32;80.05;97890.98;2178686;82;21126;-78
2020/12/24 08:54:49;;;;;;;19.10;15.37;;;;;;;9.33;80.02;97888.38;2179020;82;21125;-79
2020/12/24 08:57:50;;;;;;;19.50;15.23;;;;;;;9.34;79.93;97895.33;2178867;82;21197;-78
2020/12/24 09:00:51;;;;;;;23.00;16.17;;;;;;;9.32;79.90;97899.66;2178652;82;21269;-78
2020/12/24 09:03:52;;;;;;;22.70;14.30;;;;;;;9.33;79.90;97889.68;2178391;82;21114;-78
2020/12/24 09:06:53;;;;;;;23.07;15.60;;;;;;;9.35;79.87;97897.50;2178745;82;21154;-78
2020/12/24 09:09:54;;;;;;;26.40;18.30;;;;;;;9.35;79.82;97889.25;2179038;82;21138;-79
2020/12/24 09:12:56;;;;;;;24.10;16.70;;;;;;;9.40;79.75;97892.73;2178759;82;21118;-79
2020/12/24 09:15:57;;;;;;;23.63;15.97;;;;;;;9.44;79.70;97888.39;2178297;81;21400;-78
2020/12/24 09:18:58;;;;;;;18.63;14.23;;;;;;;9.46;79.52;97894.47;2178510;82;21158;-80
2020/12/24 09:21:59;;;;;;;20.83;15.13;;;;;;;9.44;79.45;97890.56;2178334;82;21134;-77
2020/12/24 09:25:00;;;;;;;20.20;14.60;;;;;;;9.45;79.41;97883.62;2178752;81;21224;-78
2020/12/24 09:28:04;;;;;;;22.27;14.40;;;;;;;9.47;79.43;97883.19;2176519;81;21146;-78
2020/12/24 09:31:05;;;;;;;16.97;13.55;;;;;;;9.48;79.35;97888.39;2175353;82;21113;-77
2020/12/24 09:34:06;;;;;;;16.12;14.07;;;;;;;9.50;79.30;97885.79;2175312;82;21212;-78
2020/12/24 09:37:07;;;;;;;20.07;15.20;;;;;;;9.50;79.26;97880.58;2175071;82;21739;-78
2020/12/24 09:40:08;;;;;;;19.27;14.50;;;;;;;9.51;79.24;97885.80;2174691;82;21082;-79
2020/12/24 09:43:09;;;;;;;18.80;14.50;;;;;;;9.51;79.09;97874.50;2175428;82;21114;-79
2020/12/24 09:46:10;;;;;;;20.40;15.05;;;;;;;9.50;79.05;97877.98;2175765;82;21459;-81
2020/12/24 09:49:12;;;;;;;24.27;14.53;;;;;;;9.50;79.11;97874.94;2175676;82;21106;-79
2020/12/24 09:52:13;;;;;;;20.20;15.63;;;;;;;9.50;78.97;97873.64;2175539;82;21122;-78
2020/12/24 09:55:14;;;;;;;18.12;14.07;;;;;;;9.50;79.07;97880.15;2175583;82;21126;-78
2020/12/24 09:58:16;;;;;;;19.27;14.35;;;;;;;9.52;78.95;97880.16;2175146;82;21090;-79
2020/12/24 10:01:17;;;;;;;21.87;14.87;;;;;;;9.52;78.91;97885.36;2175602;82;21149;-79
2020/12/24 10:04:18;;;;;;;21.53;15.53;;;;;;;9.50;78.86;97882.75;2175815;82;21113;-78
2020/12/24 10:07:22;;;;;;;23.07;15.43;;;;;;;9.49;78.87;97879.72;2175733;82;21395;-78
2020/12/24 10:10:24;;;;;;;24.73;15.70;;;;;;;9.51;78.87;97877.98;2175539;82;21692;-78
2020/12/24 10:13:24;;;;;;;24.43;15.78;;;;;;;9.51;78.69;97871.90;2175648;82;21118;-79
2020/12/24 10:16:26;;;;;;;21.77;15.93;;;;;;;9.53;78.74;97868.86;2175419;82;21157;-77
2020/12/24 10:19:27;;;;;;;25.02;15.55;;;;;;;9.53;78.69;97873.64;2175388;82;21142;-78
2020/12/24 10:22:28;;;;;;;22.90;14.73;;;;;;;9.54;78.65;97869.33;2175207;82;21118;-77
2020/12/24 10:25:29;;;;;;;22.13;15.43;;;;;;;9.54;78.63;97865.42;2175128;82;21244;-78
2020/12/24 10:28:30;;;;;;;25.77;16.67;;;;;;;9.55;78.64;97860.21;2190870;81;21155;-77
2020/12/24 10:31:34;;;;;;;23.90;16.85;;;;;;;9.60;78.68;97856.73;2198402;81;21083;-78
2020/12/24 10:34:35;;;;;;;26.00;16.80;;;;;;;9.67;78.65;97861.08;2198460;81;21115;-77
2020/12/24 10:37:36;;;;;;;24.77;15.27;;;;;;;9.72;78.66;97856.73;2198565;81;21166;-78
2020/12/24 10:40:38;;;;;;;28.20;17.07;;;;;;;9.75;78.53;97851.52;2198886;81;21402;-78
2020/12/24 10:43:39;;;;;;;20.30;12.78;;;;;;;9.77;78.52;97853.69;2198713;81;21138;-81
2020/12/24 10:46:40;;;;;;;29.63;18.60;;;;;;;10.09;80.96;97853.20;2198723;81;21412;-79
2020/12/24 10:49:45;;;;;;;23.92;15.32;;;;;;;11.72;78.42;97839.80;2199065;81;21118;-78
2020/12/24 10:52:46;;;;;;;22.60;17.07;;;;;;;11.32;75.16;97827.05;2198299;81;21134;-78
2020/12/24 10:55:47;;;;;;;22.93;16.82;;;;;;;10.95;75.82;97820.31;2198059;81;21487;-78
2020/12/24 10:58:49;;;;;;;24.95;16.85;;;;;;;10.66;75.89;97827.86;2197914;81;21154;-79
2020/12/24 11:01:49;;;;;;;24.70;15.53;;;;;;;10.43;76.27;97821.87;2198237;81;21146;-78
2020/12/24 11:04:51;;;;;;;26.40;15.85;;;;;;;10.26;76.50;97822.34;2198562;81;21384;-78
2020/12/24 11:07:52;;;;;;;25.80;16.97;;;;;;;10.10;76.94;97817.57;2198128;81;21091;-78
2020/12/24 11:10:53;;;;;;;23.98;16.27;;;;;;;9.98;77.24;97817.16;2198446;81;21233;-78
2020/12/24 11:13:54;;;;;;;27.93;17.12;;;;;;;9.90;77.47;97808.49;2198620;81;21239;-78
2020/12/24 11:16:55;;;;;;;21.45;14.78;;;;;;;9.83;77.76;97802.42;2198515;81;21190;-78
2020/12/24 11:19:58;;;;;;;22.48;15.53;;;;;;;9.79;77.98;97803.30;2198760;81;21499;-78
2020/12/24 11:23:00;;;;;;;23.22;15.20;;;;;;;9.72;78.11;97793.76;2198877;81;21115;-78
2020/12/24 11:26:01;;;;;;;20.02;13.68;;;;;;;9.70;78.28;97788.98;2198553;81;21114;-79
2020/12/24 11:29:02;;;;;;;19.65;13.85;;;;;;;9.68;78.50;97784.64;2196794;81;21162;-79
2020/12/24 11:32:04;;;;;;;21.57;15.08;;;;;;;9.63;78.61;97779.88;2196066;81;21240;-78
2020/12/24 11:35:05;;;;;;;21.07;15.47;;;;;;;9.59;78.83;97776.41;2196312;81;21222;-78
2020/12/24 11:38:06;;;;;;;23.15;15.25;;;;;;;9.56;78.78;97786.39;2196200;81;21158;-79
2020/12/24 11:41:07;;;;;;;22.15;13.72;;;;;;;9.52;78.95;97774.20;2196137;81;21135;-79
2020/12/24 11:44:09;;;;;;;25.60;16.23;;;;;;;9.51;79.30;97771.61;2196143;81;21234;-79
2020/12/24 11:47:10;;;;;;;23.10;14.90;;;;;;;9.51;79.26;97764.66;2195947;81;21229;-78
2020/12/24 11:50:11;;;;;;;22.07;13.75;;;;;;;9.51;79.20;97758.14;2196044;81;21119;-77
2020/12/24 11:53:14;;;;;;;20.88;14.53;;;;;;;9.53;79.16;97755.11;2195879;81;21127;-78
2020/12/24 11:56:15;;;;;;;18.10;12.47;;;;;;;9.56;79.12;97752.53;2195887;81;21126;-78
2020/12/24 11:59:16;;;;;;;18.30;12.25;;;;;;;9.58;79.15;97748.19;2196175;81;21221;-79
2020/12/24 12:02:17;;;;;;;21.20;13.55;;;;;;;9.59;79.07;97747.75;2196131;81;21241;-78
2020/12/24 12:05:21;;;;;;;23.18;13.95;;;;;;;9.58;79.02;97742.97;2196697;81;21115;-79
2020/12/24 12:08:22;;;;;;;21.42;12.58;;;;;;;9.56;79.06;97738.63;2196042;81;21135;-78
2020/12/24 12:11:23;;;;;;;16.75;11.60;;;;;;;9.54;79.15;97745.15;2195914;81;21415;-78
2020/12/24 12:14:24;;;;;;;15.17;11.67;;;;;;;9.50;79.32;97735.58;2196129;81;21254;-78
2020/12/24 12:17:25;;;;;;;14.87;11.17;;;;;;;9.47;79.36;97727.77;2195818;81;21194;-78
2020/12/24 12:20:26;;;;;;;16.57;11.30;;;;;;;9.45;79.43;97744.27;2195842;81;21472;-77
2020/12/24 12:23:28;;;;;;;15.43;10.73;;;;;;;9.44;79.47;97735.58;2195574;81;21225;-79
2020/12/24 12:26:29;;;;;;;18.40;12.27;;;;;;;9.43;79.42;97731.24;2195860;81;21237;-78
2020/12/24 12:29:30;;;;;;;34.20;19.77;;;;;;;9.42;79.43;97732.11;2195628;81;21154;-78
2020/12/24 12:32:31;;;;;;;29.13;17.90;;;;;;;9.43;79.43;97720.83;2195746;81;21122;-78
2020/12/24 12:35:34;;;;;;;25.27;16.27;;;;;;;9.45;79.45;97726.03;2196202;81;21364;-77
2020/12/24 12:38:35;;;;;;;27.50;18.90;;;;;;;9.44;79.58;97730.37;2196016;81;21162;-79
2020/12/24 12:41:40;;;;;;;22.20;15.60;;;;;;;9.41;79.51;97732.11;2196461;81;21095;-80
2020/12/24 12:44:41;;;;;;;20.82;13.13;;;;;;;9.43;79.60;97731.24;2196221;81;21123;-79
2020/12/24 12:47:42;;;;;;;19.35;13.43;;;;;;;9.44;79.61;97717.34;2196091;81;21087;-79
2020/12/24 12:50:43;;;;;;;18.77;12.68;;;;;;;9.44;79.49;97722.56;2195636;81;21250;-78
2020/12/24 12:53:44;;;;;;;17.67;12.00;;;;;;;9.45;79.46;97707.80;2195839;81;21083;-79
2020/12/24 12:56:45;;;;;;;20.35;13.05;;;;;;;9.46;79.44;97713.00;2195827;81;21174;-79
2020/12/24 12:59:46;;;;;;;20.08;12.25;;;;;;;9.44;79.44;97713.44;2196299;81;21238;-79
2020/12/24 13:02:47;;;;;;;17.87;12.68;;;;;;;9.44;79.47;97729.50;2195849;81;21126;-78
2020/12/24 13:05:48;;;;;;;20.08;13.95;;;;;;;9.42;79.50;97730.81;2195927;81;21189;-78
2020/12/24 13:08:49;;;;;;;15.40;12.33;;;;;;;9.45;79.51;97729.50;2196308;81;21257;-78
2020/12/24 13:11:51;;;;;;;19.77;13.23;;;;;;;10.29;79.95;97732.34;2195079;81;21233;-78
2020/12/24 13:14:52;;;;;;;21.67;13.67;;;;;;;10.22;78.30;97734.11;2194844;81;21237;-78
2020/12/24 13:17:53;;;;;;;20.33;13.67;;;;;;;9.98;78.11;97734.17;2195933;81;21158;-79
2020/12/24 13:20:56;;;;;;;28.97;19.63;;;;;;;9.79;78.21;97721.64;2196354;81;21225;-78
2020/12/24 13:24:00;;;;;;;21.97;14.13;;;;;;;9.67;78.49;97710.81;2195824;81;21107;-78
2020/12/24 13:27:01;;;;;;;23.60;15.03;;;;;;;9.60;78.61;97710.41;2195832;81;21233;-78
2020/12/24 13:30:02;;;;;;;21.50;14.87;;;;;;;9.52;78.67;97701.27;2195836;81;21182;-78
2020/12/24 13:33:03;;;;;;;24.50;14.23;;;;;;;9.49;78.75;97686.95;2195636;81;21131;-78
2020/12/24 13:36:04;;;;;;;19.80;13.50;;;;;;;9.45;78.68;97680.02;2195552;81;21716;-79
2020/12/24 13:39:05;;;;;;;19.87;13.07;;;;;;;9.38;78.66;97669.17;2196140;81;21079;-78
2020/12/24 13:42:09;;;;;;;21.30;13.83;;;;;;;9.37;78.76;97672.66;2195915;81;21142;-78
2020/12/24 13:45:12;;;;;;;19.23;13.22;;;;;;;9.34;78.76;97667.45;2196236;81;21400;-78
2020/12/24 13:48:13;;;;;;;19.83;12.63;;;;;;;9.32;78.74;97670.48;2196321;81;21122;-79
2020/12/24 13:51:14;;;;;;;19.87;12.27;;;;;;;9.28;78.24;97663.55;2196077;81;21396;-79
2020/12/24 13:54:15;;;;;;;18.97;12.57;;;;;;;9.21;78.13;97664.00;2196221;81;21119;-79
2020/12/24 13:57:16;;;;;;;17.90;12.03;;;;;;;9.17;78.35;97684.84;2196232;81;21162;-78
2020/12/24 14:00:17;;;;;;;22.63;14.17;;;;;;;9.11;78.28;97686.14;2196094;81;21131;-78
2020/12/24 14:03:18;;;;;;;23.87;15.67;;;;;;;9.05;78.43;97668.80;2195981;81;21123;-79
2020/12/24 14:06:19;;;;;;;23.43;14.90;;;;;;;9.05;78.53;97666.63;2195181;81;21277;-78